createdAt,value
2022-08-23T00:00:13.460Z,101317.88
2022-08-23T00:03:10.749Z,101319.13
2022-08-23T00:06:07.755Z,101325.72
2022-08-23T00:09:05.285Z,101316.28
2022-08-23T00:12:02.725Z,101313.81
2022-08-23T00:14:59.945Z,101311.00
2022-08-23T00:17:56.888Z,101318.78
2022-08-23T00:20:53.814Z,101307.78
2022-08-23T00:23:51.171Z,101313.53
2022-08-23T00:27:12.701Z,101319.63
2022-08-23T00:30:10.784Z,101313.88
2022-08-23T00:33:08.068Z,101312.28
2022-08-23T00:36:05.621Z,101308.16
2022-08-23T00:39:02.796Z,101307.75
2022-08-23T00:42:27.953Z,101305.25
2022-08-23T00:45:49.149Z,101306.09
2022-08-23T00:48:47.105Z,101304.47
2022-08-23T00:51:53.637Z,101308.97
2022-08-23T00:54:52.973Z,101308.97
2022-08-23T00:57:49.850Z,101298.38
2022-08-23T01:00:50.260Z,101306.56
2022-08-23T01:04:03.983Z,101304.53
2022-08-23T01:07:19.525Z,101300.44
2022-08-23T01:10:32.029Z,101307.41
2022-08-23T01:13:39.436Z,101300.81
2022-08-23T01:17:17.686Z,101305.72
2022-08-23T01:20:19.483Z,101309.78
2022-08-23T01:23:45.648Z,101295.78
2022-08-23T01:26:42.723Z,101303.19
2022-08-23T01:29:40.710Z,101295.88
2022-08-23T01:35:38.231Z,101298.34
2022-08-23T01:38:36.217Z,101299.19
2022-08-23T01:41:34.209Z,101298.38
2022-08-23T01:44:31.747Z,101300.03
2022-08-23T01:47:30.012Z,101304.97
2022-08-23T01:50:28.317Z,101298.81
2022-08-23T01:53:25.624Z,101302.88
2022-08-23T01:56:38.185Z,101298.41
2022-08-23T01:59:37.533Z,101286.94
2022-08-23T02:02:35.251Z,101291.06
2022-08-23T02:05:33.168Z,101295.16
2022-08-23T02:08:49.819Z,101288.59
2022-08-23T02:11:51.972Z,101295.19
2022-08-23T02:14:49.110Z,101295.16
2022-08-23T02:17:54.986Z,101291.88
2022-08-23T02:20:52.462Z,101297.19
2022-08-23T02:23:51.664Z,101301.69
2022-08-23T02:26:50.476Z,101298.41
2022-08-23T02:29:53.962Z,101299.25
2022-08-23T02:32:52.022Z,101296.78
2022-08-23T02:35:50.084Z,101300.47
2022-08-23T02:38:48.084Z,101298.44
2022-08-23T02:41:44.699Z,101295.56
2022-08-23T02:44:41.877Z,101300.03
2022-08-23T02:47:40.020Z,101300.47
2022-08-23T02:50:50.788Z,101295.97
2022-08-23T02:53:49.112Z,101302.13
2022-08-23T02:56:47.589Z,101293.91
2022-08-23T02:59:44.989Z,101294.72
2022-08-23T03:02:42.863Z,101299.59
2022-08-23T03:05:40.861Z,101300.00
2022-08-23T03:08:38.010Z,101300.03
2022-08-23T03:11:36.356Z,101293.47
2022-08-23T03:14:35.175Z,101290.16
2022-08-23T03:17:35.109Z,101290.56
2022-08-23T03:20:34.545Z,101292.22
2022-08-23T03:23:33.274Z,101294.59
2022-08-23T03:26:30.809Z,101292.09
2022-08-23T03:29:28.761Z,101296.59
2022-08-23T03:32:30.085Z,101309.31
2022-08-23T03:35:28.158Z,101303.19
2022-08-23T03:38:26.058Z,101299.16
2022-08-23T03:41:23.180Z,101303.25
2022-08-23T03:44:20.917Z,101308.19
2022-08-23T03:47:18.931Z,101301.63
2022-08-23T03:50:20.881Z,101304.03
2022-08-23T03:53:17.959Z,101304.00
2022-08-23T03:56:27.360Z,101292.50
2022-08-23T03:59:24.821Z,101307.66
2022-08-23T04:02:22.129Z,101308.09
2022-08-23T04:05:19.966Z,101309.72
2022-08-23T04:08:27.078Z,101308.06
2022-08-23T04:11:31.597Z,101319.50
2022-08-23T04:14:35.534Z,101316.22
2022-08-23T04:17:33.717Z,101323.59
2022-08-23T04:20:31.062Z,101327.69
2022-08-23T04:23:31.538Z,101329.28
2022-08-23T04:26:30.346Z,101323.50
2022-08-23T04:29:34.396Z,101319.81
2022-08-23T04:32:33.206Z,101327.53
2022-08-23T04:35:32.486Z,101325.47
2022-08-23T04:38:29.831Z,101329.50
2022-08-23T04:41:50.440Z,101338.06
2022-08-23T04:44:48.050Z,101323.41
2022-08-23T04:47:45.240Z,101330.78
2022-08-23T04:50:43.062Z,101330.44
2022-08-23T04:53:50.994Z,101327.59
2022-08-23T04:57:16.889Z,101339.06
2022-08-23T05:00:16.909Z,101352.53
2022-08-23T05:03:21.232Z,101354.19
2022-08-23T05:06:18.686Z,101352.56
2022-08-23T05:09:20.446Z,101358.34
2022-08-23T05:12:18.114Z,101353.44
2022-08-23T05:15:21.017Z,101356.31
2022-08-23T05:18:25.002Z,101357.53
2022-08-23T05:21:23.705Z,101357.16
2022-08-23T05:24:21.309Z,101363.31
2022-08-23T05:27:19.167Z,101360.50
2022-08-23T05:30:16.271Z,101359.75
2022-08-23T05:33:13.760Z,101363.06
2022-08-23T05:36:12.109Z,101370.03
2022-08-23T05:39:08.977Z,101365.97
2022-08-23T05:42:10.836Z,101359.88
2022-08-23T05:45:09.646Z,101361.91
2022-08-23T05:48:06.753Z,101359.06
2022-08-23T05:51:18.074Z,101366.03
2022-08-23T05:54:15.131Z,101372.22
2022-08-23T05:57:12.246Z,101377.13
2022-08-23T06:00:13.372Z,101382.03
2022-08-23T06:03:15.921Z,101387.78
2022-08-23T06:06:13.467Z,101391.88
2022-08-23T06:09:15.117Z,101382.44
2022-08-23T06:12:13.114Z,101385.31
2022-08-23T06:15:10.899Z,101391.88
2022-08-23T06:18:07.945Z,101388.59
2022-08-23T06:21:08.044Z,101388.59
2022-08-23T06:24:15.930Z,101392.69
2022-08-23T06:27:24.066Z,101400.50
2022-08-23T06:30:20.870Z,101407.84
2022-08-23T06:33:27.455Z,101402.47
2022-08-23T06:36:33.359Z,101409.06
2022-08-23T06:39:46.120Z,101406.59
2022-08-23T06:43:07.139Z,101409.03
2022-08-23T06:46:24.245Z,101411.06
2022-08-23T06:49:22.284Z,101405.63
2022-08-23T06:52:19.570Z,101407.28
2022-08-23T06:55:26.878Z,101413.38
2022-08-23T06:58:33.968Z,101412.13
2022-08-23T07:02:08.003Z,101411.72
2022-08-23T07:05:24.143Z,101410.44
2022-08-23T07:08:42.853Z,101409.22
2022-08-23T07:11:39.887Z,101409.59
2022-08-23T07:14:37.178Z,101407.09
2022-08-23T07:17:35.498Z,101415.13
2022-08-23T07:20:32.948Z,101398.75
2022-08-23T07:23:33.553Z,101399.91
2022-08-23T07:26:33.478Z,101414.19
2022-08-23T07:29:31.517Z,101413.22
2022-08-23T07:32:29.159Z,101426.97
2022-08-23T07:35:28.492Z,101415.41
2022-08-23T07:38:30.628Z,101407.22
2022-08-23T07:41:30.999Z,101411.16
2022-08-23T07:44:30.162Z,101406.25
2022-08-23T07:47:29.687Z,101407.47
2022-08-23T07:50:30.508Z,101413.06
2022-08-23T07:53:37.699Z,101409.59
2022-08-23T07:56:37.376Z,101409.94
2022-08-23T07:59:46.050Z,101416.44
2022-08-23T08:03:11.583Z,101414.34
2022-08-23T08:06:28.073Z,101413.25
2022-08-23T08:09:25.215Z,101412.06
2022-08-23T08:12:23.493Z,101410.22
2022-08-23T08:15:24.079Z,101411.19
2022-08-23T08:18:28.424Z,101416.75
2022-08-23T08:21:48.604Z,101421.06
2022-08-23T08:24:55.041Z,101421.31
2022-08-23T08:27:52.499Z,101424.78
2022-08-23T08:30:50.162Z,101428.63
2022-08-23T08:33:47.077Z,101427.41
2022-08-23T08:36:47.386Z,101433.06
2022-08-23T08:39:47.415Z,101428.34
2022-08-23T08:42:48.982Z,101426.69
2022-08-23T08:46:04.303Z,101429.59
2022-08-23T08:49:04.798Z,101432.19
2022-08-23T08:52:11.194Z,101431.91
2022-08-23T08:55:12.065Z,101435.75
2022-08-23T08:58:14.842Z,101429.91
2022-08-23T09:01:12.439Z,101426.66
2022-08-23T09:04:10.065Z,101439.63
2022-08-23T09:07:15.745Z,101438.66
2022-08-23T09:10:42.769Z,101435.22
2022-08-23T09:13:55.381Z,101447.41
2022-08-23T09:16:53.951Z,101438.16
2022-08-23T09:19:51.641Z,101437.78
2022-08-23T09:22:52.470Z,101438.16
2022-08-23T09:26:03.516Z,101437.88
2022-08-23T09:29:26.626Z,101438.59
2022-08-23T09:32:26.926Z,101440.22
2022-08-23T09:35:25.650Z,101443.59
2022-08-23T09:38:33.963Z,101432.25
2022-08-23T09:41:43.194Z,101435.69
2022-08-23T09:44:42.307Z,101429.97
2022-08-23T09:47:44.392Z,101431.94
2022-08-23T09:50:50.246Z,101435.72
2022-08-23T09:54:19.734Z,101438.34
2022-08-23T09:57:18.083Z,101433.47
2022-08-23T10:00:27.885Z,101440.25
2022-08-23T10:03:28.956Z,101433.53
2022-08-23T10:06:34.195Z,101439.88
2022-08-23T10:09:34.520Z,101429.00
2022-08-23T10:12:35.581Z,101435.50
2022-08-23T10:15:40.584Z,101438.53
2022-08-23T10:19:02.861Z,101435.63
2022-08-23T10:22:22.094Z,101441.56
2022-08-23T10:25:44.999Z,101441.00
2022-08-23T10:29:14.959Z,101433.63
2022-08-23T10:32:19.073Z,101426.81
2022-08-23T10:35:23.884Z,101427.50
2022-08-23T10:38:33.205Z,101439.38
2022-08-23T10:41:57.054Z,101434.53
2022-08-23T10:45:22.613Z,101434.28
2022-08-23T10:48:28.889Z,101430.91
2022-08-23T10:51:31.695Z,101431.97
2022-08-23T10:54:35.872Z,101422.69
2022-08-23T10:57:40.327Z,101412.00
2022-08-23T11:00:38.317Z,101426.75
2022-08-23T11:03:50.406Z,101411.19
2022-08-23T11:06:51.122Z,101422.31
2022-08-23T11:10:09.904Z,101416.72
2022-08-23T11:13:14.115Z,101421.38
2022-08-23T11:16:15.898Z,101419.50
2022-08-23T11:19:15.649Z,101423.72
2022-08-23T11:22:23.227Z,101419.75
2022-08-23T11:25:22.104Z,101414.63
2022-08-23T11:28:25.912Z,101418.25
2022-08-23T11:31:53.422Z,101419.00
2022-08-23T11:34:55.264Z,101420.06
2022-08-23T11:37:59.882Z,101422.31
2022-08-23T11:41:34.140Z,101420.69
2022-08-23T11:44:42.565Z,101424.72
2022-08-23T11:47:42.661Z,101421.16
2022-08-23T11:50:45.837Z,101426.13
2022-08-23T11:53:49.502Z,101422.19
2022-08-23T11:56:58.081Z,101413.31
2022-08-23T12:00:29.045Z,101417.78
2022-08-23T12:03:35.520Z,101415.06
2022-08-23T12:06:50.593Z,101407.03
2022-08-23T12:09:50.253Z,101403.88
2022-08-23T12:12:47.511Z,101417.06
2022-08-23T12:16:19.406Z,101411.63
2022-08-23T12:19:32.323Z,101418.28
2022-08-23T12:22:53.648Z,101413.66
2022-08-23T12:26:09.470Z,101410.38
2022-08-23T12:29:27.929Z,101413.66
2022-08-23T12:32:52.711Z,101399.84
2022-08-23T12:35:50.389Z,101404.16
2022-08-23T12:39:09.958Z,101402.03
2022-08-23T12:42:13.808Z,101406.91
2022-08-23T12:45:41.467Z,101402.75
2022-08-23T12:48:46.859Z,101402.94
2022-08-23T12:51:52.354Z,101425.97
2022-08-23T12:54:50.669Z,101412.06
2022-08-23T12:57:54.690Z,101414.28
2022-08-23T13:00:54.586Z,101417.78
2022-08-23T13:04:19.686Z,101418.25
2022-08-23T13:07:19.747Z,101414.00
2022-08-23T13:10:17.332Z,101408.97
2022-08-23T13:13:16.757Z,101401.06
2022-08-23T13:16:26.802Z,101404.16
2022-08-23T13:19:29.273Z,101401.59
2022-08-23T13:22:26.772Z,101395.16
2022-08-23T13:25:31.153Z,101402.09
2022-08-23T13:28:31.096Z,101403.31
2022-08-23T13:32:02.526Z,101387.25
2022-08-23T13:35:23.231Z,101394.19
2022-08-23T13:38:25.484Z,101395.00
2022-08-23T13:41:39.172Z,101396.88
2022-08-23T13:44:36.753Z,101393.09
2022-08-23T13:47:35.836Z,101404.47
2022-08-23T13:50:36.090Z,101396.16
2022-08-23T13:53:33.429Z,101397.69
2022-08-23T13:56:36.887Z,101392.56
2022-08-23T13:59:40.324Z,101397.00
2022-08-23T14:02:37.975Z,101396.88
2022-08-23T14:05:35.596Z,101393.22
2022-08-23T14:08:32.310Z,101389.09
2022-08-23T14:11:29.295Z,101397.22
2022-08-23T14:14:26.597Z,101389.81
2022-08-23T14:17:23.387Z,101399.94
2022-08-23T14:23:38.498Z,101402.59
2022-08-23T14:26:35.422Z,101389.03
2022-08-23T14:29:32.485Z,101385.94
2022-08-23T14:32:29.569Z,101398.09
2022-08-23T14:35:26.727Z,101401.94
2022-08-23T14:38:23.743Z,101404.13
2022-08-23T14:41:22.761Z,101401.34
2022-08-23T14:44:19.282Z,101393.06
2022-08-23T14:47:16.881Z,101388.59
2022-08-23T14:50:14.576Z,101397.41
2022-08-23T14:53:12.589Z,101389.97
2022-08-23T14:56:20.991Z,101392.09
2022-08-23T14:59:18.758Z,101383.13
2022-08-23T15:02:17.592Z,101387.47
2022-08-23T15:05:15.124Z,101382.38
2022-08-23T15:08:12.818Z,101383.94
2022-08-23T15:14:27.485Z,101396.03
2022-08-23T15:17:30.322Z,101407.53
2022-08-23T15:20:31.100Z,101402.41
2022-08-23T15:23:28.629Z,101389.25
2022-08-23T15:26:27.237Z,101397.91
2022-08-23T15:29:24.768Z,101391.41
2022-08-23T15:32:22.499Z,101375.91
2022-08-23T15:35:21.036Z,101384.66
2022-08-23T15:38:18.664Z,101372.97
2022-08-23T15:41:17.845Z,101377.81
2022-08-23T15:44:15.696Z,101375.56
2022-08-23T15:47:25.470Z,101382.31
2022-08-23T15:50:24.272Z,101376.16
2022-08-23T15:53:22.131Z,101384.75
2022-08-23T15:56:22.520Z,101382.94
2022-08-23T15:59:19.637Z,101382.47
2022-08-23T16:02:16.608Z,101383.94
2022-08-23T16:05:13.530Z,101382.66
2022-08-23T16:08:14.939Z,101384.06
2022-08-23T16:11:13.028Z,101385.38
2022-08-23T16:14:10.871Z,101375.03
2022-08-23T16:17:07.758Z,101375.81
2022-08-23T16:20:05.459Z,101383.41
2022-08-23T16:23:02.493Z,101381.19
2022-08-23T16:26:01.305Z,101378.78
2022-08-23T16:28:58.748Z,101378.13
2022-08-23T16:31:57.633Z,101392.88
2022-08-23T16:34:54.796Z,101386.31
2022-08-23T16:37:54.537Z,101389.09
2022-08-23T16:40:51.558Z,101387.50
2022-08-23T16:43:49.256Z,101392.38
2022-08-23T16:46:47.130Z,101390.78
2022-08-23T16:49:44.914Z,101390.34
2022-08-23T16:52:41.515Z,101378.63
2022-08-23T16:55:38.704Z,101380.59
2022-08-23T16:58:36.698Z,101390.94
2022-08-23T17:01:50.282Z,101380.06
2022-08-23T17:04:52.173Z,101386.22
2022-08-23T17:07:50.625Z,101379.69
2022-08-23T17:10:48.808Z,101372.50
2022-08-23T17:13:45.929Z,101376.81
2022-08-23T17:16:44.084Z,101371.47
2022-08-23T17:19:41.783Z,101370.75
2022-08-23T17:22:38.392Z,101381.56
2022-08-23T17:25:36.296Z,101386.75
2022-08-23T17:28:33.822Z,101393.84
2022-08-23T17:31:30.560Z,101392.44
2022-08-23T17:34:27.680Z,101414.63
2022-08-23T17:37:24.624Z,101422.84
2022-08-23T17:40:24.948Z,101428.69
2022-08-23T17:43:21.794Z,101434.03
2022-08-23T17:46:18.686Z,101438.22
2022-08-23T17:49:16.454Z,101445.81
2022-08-23T17:52:13.607Z,101445.94
2022-08-23T17:55:10.799Z,101446.44
2022-08-23T17:58:08.163Z,101447.16
2022-08-23T18:01:07.598Z,101453.19
2022-08-23T18:04:05.973Z,101455.78
2022-08-23T18:07:02.772Z,101452.84
2022-08-23T18:09:59.737Z,101450.19
2022-08-23T18:12:57.621Z,101461.25
2022-08-23T18:15:54.671Z,101450.47
2022-08-23T18:18:51.596Z,101462.91
2022-08-23T18:21:49.570Z,101467.41
2022-08-23T18:24:46.838Z,101466.09
2022-08-23T18:28:02.884Z,101469.91
2022-08-23T18:31:03.488Z,101467.59
2022-08-23T18:34:00.946Z,101468.72
2022-08-23T18:36:59.335Z,101475.63
2022-08-23T18:39:57.677Z,101467.56
2022-08-23T18:42:55.116Z,101474.03
2022-08-23T18:45:53.782Z,101476.94
2022-08-23T18:48:53.591Z,101478.03
2022-08-23T18:51:50.986Z,101480.88
2022-08-23T18:54:48.025Z,101480.03
2022-08-23T18:57:46.077Z,101472.41
2022-08-23T19:00:43.718Z,101482.94
2022-08-23T19:03:40.689Z,101488.09
2022-08-23T19:06:37.835Z,101481.22
2022-08-23T19:09:34.934Z,101491.25
2022-08-23T19:12:31.455Z,101494.25
2022-08-23T19:15:33.998Z,101486.53
2022-08-23T19:18:30.635Z,101498.97
2022-08-23T19:21:27.840Z,101504.50
2022-08-23T19:24:25.052Z,101504.06
2022-08-23T19:27:21.664Z,101506.41
2022-08-23T19:30:19.114Z,101504.59
2022-08-23T19:33:17.914Z,101517.00
2022-08-23T19:36:35.718Z,101501.41
2022-08-23T19:39:31.839Z,101502.47
2022-08-23T19:42:28.889Z,101506.22
2022-08-23T19:45:26.061Z,101496.81
2022-08-23T19:48:28.654Z,101494.09
2022-08-23T19:51:26.490Z,101503.28
2022-08-23T19:54:23.624Z,101500.28
2022-08-23T19:57:23.088Z,101510.25
2022-08-23T20:00:20.767Z,101514.69
2022-08-23T20:03:17.918Z,101526.03
2022-08-23T20:06:18.925Z,101520.56
2022-08-23T20:09:17.334Z,101518.81
2022-08-23T20:12:16.931Z,101519.56
2022-08-23T20:15:13.867Z,101513.53
2022-08-23T20:18:10.999Z,101513.94
2022-08-23T20:21:08.265Z,101523.72
2022-08-23T20:24:07.402Z,101533.16
2022-08-23T20:27:06.219Z,101535.75
2022-08-23T20:30:08.314Z,101524.44
2022-08-23T20:33:05.754Z,101530.66
2022-08-23T20:36:03.446Z,101527.97
2022-08-23T20:39:01.044Z,101521.22
2022-08-23T20:41:58.234Z,101514.38
2022-08-23T20:44:55.989Z,101511.66
2022-08-23T20:47:52.603Z,101507.31
2022-08-23T20:50:49.901Z,101513.94
2022-08-23T20:53:47.336Z,101507.16
2022-08-23T20:56:45.104Z,101508.84
2022-08-23T20:59:44.682Z,101508.06
2022-08-23T21:02:41.565Z,101519.47
2022-08-23T21:05:39.137Z,101523.44
2022-08-23T21:08:35.548Z,101521.09
2022-08-23T21:11:39.950Z,101517.50
2022-08-23T21:14:36.972Z,101522.53
2022-08-23T21:17:33.933Z,101525.53
2022-08-23T21:20:30.953Z,101528.53
2022-08-23T21:23:27.856Z,101530.91
2022-08-23T21:26:24.983Z,101524.81
2022-08-23T21:29:21.952Z,101536.41
2022-08-23T21:32:18.754Z,101537.38
2022-08-23T21:35:15.719Z,101547.81
2022-08-23T21:38:12.744Z,101553.69
2022-08-23T21:41:12.086Z,101558.38
2022-08-23T21:44:11.299Z,101556.09
2022-08-23T21:47:09.015Z,101548.22
2022-08-23T21:50:06.062Z,101547.91
2022-08-23T21:53:04.245Z,101534.25
2022-08-23T21:56:02.094Z,101524.81
2022-08-23T21:58:59.635Z,101517.69
2022-08-23T22:01:57.384Z,101516.97
2022-08-23T22:04:54.829Z,101535.03
2022-08-23T22:07:52.099Z,101541.88
2022-08-23T22:10:57.833Z,101530.59
2022-08-23T22:13:56.270Z,101545.53
2022-08-23T22:16:55.317Z,101539.69
2022-08-23T22:19:52.939Z,101547.88
2022-08-23T22:22:50.744Z,101548.66
2022-08-23T22:25:48.016Z,101560.19
2022-08-23T22:28:45.983Z,101549.19
2022-08-23T22:31:43.334Z,101550.28
2022-08-23T22:34:41.174Z,101541.13
2022-08-23T22:37:45.930Z,101543.81
2022-08-23T22:40:51.865Z,101559.03
2022-08-23T22:43:49.051Z,101545.84
2022-08-23T22:46:46.130Z,101556.94
2022-08-23T22:49:43.036Z,101558.72
2022-08-23T22:52:40.499Z,101551.94
2022-08-23T22:55:37.837Z,101554.13
2022-08-23T22:58:35.053Z,101540.25
2022-08-23T23:01:34.468Z,101549.03
2022-08-23T23:04:33.728Z,101547.03
2022-08-23T23:07:49.587Z,101548.38
2022-08-23T23:10:46.657Z,101564.34
2022-08-23T23:13:44.580Z,101572.59
2022-08-23T23:16:42.243Z,101575.41
2022-08-23T23:19:58.439Z,101578.69
2022-08-23T23:22:55.863Z,101585.16
2022-08-23T23:25:52.904Z,101576.97
2022-08-23T23:28:50.216Z,101579.09
2022-08-23T23:31:46.931Z,101578.78
2022-08-23T23:34:43.821Z,101574.78
2022-08-23T23:37:40.907Z,101590.47
2022-08-23T23:40:38.512Z,101583.53
2022-08-23T23:43:35.883Z,101589.19
2022-08-23T23:46:32.986Z,101589.44
2022-08-23T23:49:32.122Z,101584.50
2022-08-23T23:52:29.808Z,101587.81
2022-08-23T23:55:27.336Z,101586.25
2022-08-23T23:58:24.675Z,101583.84
